Flight Track Log - Related Links

Times and Time Zones

All times are in EDT time to prevent confusion due to time zone crossing. See the SQH3323 flight status page for this flight to view local times or setup timezone preferences in your user account.

Time Position Orientation Groundspeed Altitude Reporting Facility
EDT Latitude Longitude Course Direction KTS MPH feet Rate Location/Type
Thu 07:51:15 PM 45.7122 -118.8580 255° West 174 200 3,700  Level Seattle Center
Thu 07:53:04 PM 45.6883 -118.9840 257° West 176 203 6,100 1,385 Climbing Seattle Center
Thu 07:54:04 PM 45.6783 -119.0460 250° West 176 203 7,600 1,400 Climbing Seattle Center
Thu 07:55:04 PM 45.6619 -119.1090 248° West 176 203 8,900 1,250 Climbing Seattle Center
Thu 07:56:04 PM 45.6436 -119.1740 255° West 176 203 10,100 1,250 Climbing Seattle Center
Thu 07:57:04 PM 45.6314 -119.2370 258° West 176 203 11,400 1,350 Climbing Seattle Center
Thu 07:58:04 PM 45.6214 -119.3050 270° West 181 208 12,800 1,250 Climbing Seattle Center
Thu 07:59:04 PM 45.6217 -119.3730 266° West 181 208 13,900 550 Climbing Seattle Center
Thu 08:00:04 PM 45.6178 -119.4590 268° West 192 221 13,900 50 Level Seattle Center
Thu 08:01:04 PM 45.6158 -119.5480 267° West 211 243 14,000  Climbing Seattle Center
Thu 08:02:04 PM 45.6119 -119.6430 268° West 235 270 13,900 -50 Descending Seattle Center
Thu 08:03:04 PM 45.6097 -119.7380 267° West 240 276 13,900  Level Seattle Center
Thu 08:04:04 PM 45.6056 -119.8360 268° West 240 276 13,900 50 Level Seattle Center
Thu 08:05:04 PM 45.6036 -119.9280 266° West 240 276 14,000 50 Climbing Seattle Center
Thu 08:06:04 PM 45.5992 -120.0260 266° West 245 282 14,000  Level Seattle Center
Thu 08:07:04 PM 45.5947 -120.1210 268° West 245 282 14,000  Level Seattle Center
Thu 08:08:04 PM 45.5925 -120.2160 266° West 245 282 14,000  Level Seattle Center
Thu 08:09:04 PM 45.5878 -120.3110 266° West 245 282 14,000  Level Seattle Center
Thu 08:10:04 PM 45.5831 -120.4180 268° West 245 282 14,000  Level Seattle Center
Thu 08:11:04 PM 45.5806 -120.5120 264° West 245 282 14,000  Level Seattle Center
Thu 08:12:04 PM 45.5736 -120.6070 268° West 250 288 14,000  Level Seattle Center
Thu 08:13:04 PM 45.5708 -120.7020 266° West 250 288 14,000  Level Seattle Center
Thu 08:14:04 PM 45.5658 -120.8000 267° West 250 288 14,000  Level Seattle Center
Thu 08:15:04 PM 45.5628 -120.8940 267° West 245 282 14,000 50 Level Seattle Center
Thu 08:16:04 PM 45.5597 -120.9890 266° West 245 282 14,100 50 Climbing Seattle Center
Thu 08:17:04 PM 45.5547 -121.0840 265° West 245 282 14,100  Level Seattle Center
Thu 08:18:04 PM 45.5497 -121.1580 266° West 245 282 14,100 -50 Level Seattle Center
Thu 08:19:04 PM 45.5439 -121.2730 267° West 245 282 14,000 -50 Descending Seattle Center
Thu 08:20:04 PM 45.5406 -121.3680 269° West 245 282 14,000  Level Seattle Center
Thu 08:20:35 PM 45.5400 -121.4220 265° West 243 280 14,000 -400 Level Seattle Center
Thu 08:21:04 PM 45.5372 -121.4660 269° West 245 282 13,600 -986 Descending Seattle Center
Thu 08:21:48 PM 45.5361 -121.5430 244° Southwest 248 285 12,800 -1,000 Descending Seattle Center
Thu 08:22:04 PM 45.5294 -121.5630 271° West 251 289 12,600 -800 Descending Seattle Center
Thu 08:22:48 PM 45.5303 -121.6440 245° Southwest 251 289 12,000 -600 Descending Seattle Center
Thu 08:23:04 PM 45.5239 -121.6640 268° West 251 289 12,000 -806 Level Seattle Center
Thu 08:23:55 PM 45.5222 -121.7500 265° West 250 288 11,100 -1,019 Descending Seattle Center
Thu 08:24:50 PM 45.5167 -121.8410 274° West 260 299 10,200 -492 Descending Seattle Center
Thu 08:25:57 PM 45.5228 -121.9600 281° West 255 293 10,100 -47 Descending Seattle Center
Thu 08:26:58 PM 45.5356 -122.0560 277° West 250 288 10,100  Level Seattle Center
Thu 08:27:59 PM 45.5439 -122.1510 279° West 251 289 10,100  Level Seattle Center
Thu 08:28:53 PM 45.5544 -122.2460 288° West 251 289 10,100  Level Seattle Center
Thu 08:29:54 PM 45.5753 -122.3390 300° West 252 290 10,100 -52 Level Seattle Center
Thu 08:30:49 PM 45.6069 -122.4180 290° West 246 283 10,000 -86 Descending Seattle Center
Thu 08:31:04 PM 45.6108 -122.4330 298° West 255 293 10,000 -1,520 Level Seattle Center
Thu 08:32:04 PM 45.6422 -122.5170 299° West 250 288 8,100 -2,177 Descending Seattle Center
Thu 08:32:57 PM 45.6736 -122.5990 296° West 230 265 5,900 -2,000 Descending Seattle Center
Thu 08:34:04 PM 45.7028 -122.6840 293° West 232 267 4,100 -942 Descending Seattle Center
Thu 08:34:58 PM 45.7219 -122.7500 296° West 205 236 4,000 -52 Descending Seattle Center
Thu 08:35:59 PM 45.7469 -122.8230 261° West 205 236 4,000  Level Seattle Center
Thu 08:37:00 PM 45.7389 -122.8940 180° South 198 228 4,000  Level Seattle Center
Thu 08:38:01 PM 45.6972 -122.8940 119° Southeast 177 204 4,000 -344 Level Seattle Center
Thu 08:39:02 PM 45.6739 -122.8340 116° Southeast 173 199 3,300 -885 Descending Seattle Center
Thu 08:40:03 PM 45.6525 -122.7700 122° Southeast 173 199 2,200 -776 Descending Seattle Center
Thu 08:40:58 PM 45.6369 -122.7340 121° Southeast 122 140 1,800 -496 Descending Seattle Center
Thu 08:42:04 PM 45.6211 -122.6970 116° Southeast 106 122 1,200 -614 Descending Seattle Center
Thu 08:43:05 PM 45.6075 -122.6580 116° Southeast 106 122 500 -689 Descending Seattle Center

Login

Don't have an account? Register now (free) for customized features, flight alerts, and more!